Bangor International

Airport
ICAO code: 
KBGR
Summary
ICAO Region: 
NAM
Territory: 
Location: 
Bangor, Maine,
Coordinates: 
Aerial View: 
44° 48' 26.996" N, 68° 49' 41.002" W
Airport CFIT: 
Altimeter Temperature Error Correction
Airport WX: 
Cumulonimbus
Metar
Observation
KBGR 020953Z 32003KT 10SM OVC100 M04/M07 A3005 RMK AO2 SLP178 T10391067
Station
Bangor, Bangor International Airport
Date/Time
2021-12-02 09:53:00
Wind direction
320°
Wind speed
03 kts
Lowest cloud amount
overcast
Temperature
-3.9°C
Dew point
-6.7°C
Humidity
80%
Weather condition
n/a

Description

International airport serving Bangor, Maine.

Climatology

Humid Continental climate (Köppen climate classification Dfb) - Variable weather patterns and a large seasonal temperature variance. Summers are often warm and humid with frequent thunderstorms and winters can be very cold with frequent snowfall and persistent snow cover.

Runways

Designator Length Width Surface Rops
15/33 3487 61 ASP Yes/Yes
Airport map: 
Aerial View: 

SKYbrary Partners:

Safety knowledge contributed by: